Time;durP1;ratioP1;P1;durP2;ratioP2;P2;SDS_P1;SDS_P2;PMS_P1;PMS_P2;Temp;Humidity;BMP_temperature;BMP_pressure;BME280_temperature;BME280_humidity;BME280_pressure;Samples;Min_cycle;Max_cycle;Signal;HPM_P1;HPM_P2
2022/01/25 00:24:14;;;;;;;4.57;3.20;;;;;;;21.55;25.44;100744.09;5131466;28;20134;-58
2022/01/25 00:26:37;;;;;;;5.38;3.85;;;;;;;21.54;25.36;100741.69;5131351;28;20457;-58
2022/01/25 00:29:25;;;;;;;4.45;3.50;;;;;;;21.54;25.36;100745.25;5131121;27;20062;-58
2022/01/25 00:31:49;;;;;;;4.28;3.10;;;;;;;21.57;25.49;100743.75;5130810;27;20126;-58
2022/01/25 00:34:14;;;;;;;5.43;3.13;;;;;;;21.57;25.44;100744.56;5130534;28;20130;-57
2022/01/25 00:36:40;;;;;;;4.40;3.35;;;;;;;21.58;25.60;100745.41;5130754;27;20100;-57
2022/01/25 00:39:05;;;;;;;3.95;2.75;;;;;;;21.54;25.46;100744.47;5130722;28;20510;-57
2022/01/25 00:41:31;;;;;;;5.07;3.60;;;;;;;21.53;25.60;100748.41;5129998;28;20035;-58
2022/01/25 00:43:59;;;;;;;4.00;3.15;;;;;;;21.50;25.32;100749.88;5130726;27;20039;-56
2022/01/25 00:46:25;;;;;;;5.00;3.67;;;;;;;21.47;25.70;100755.34;5130942;27;20059;-57
2022/01/25 00:48:54;;;;;;;5.18;3.33;;;;;;;21.43;25.49;100756.06;5130784;27;20082;-58
2022/01/25 00:54:06;;;;;;;5.10;3.63;;;;;;;21.39;25.44;100754.31;5130559;27;20054;-58
2022/01/25 00:56:34;;;;;;;4.18;3.15;;;;;;;21.35;25.55;100748.59;5130536;27;20096;-58
2022/01/25 00:59:02;;;;;;;4.10;3.13;;;;;;;21.33;25.77;100748.16;5130450;27;20047;-58
2022/01/25 01:01:28;;;;;;;4.35;3.33;;;;;;;21.31;25.71;100750.47;5130273;27;20043;-58
2022/01/25 01:03:54;;;;;;;4.30;3.10;;;;;;;21.29;25.48;100752.78;5130296;27;20047;-59
2022/01/25 01:06:20;;;;;;;4.47;3.38;;;;;;;21.26;25.47;100756.22;5130255;27;20045;-58
2022/01/25 01:08:46;;;;;;;4.90;3.65;;;;;;;21.24;25.66;100750.19;5130302;27;20050;-58
2022/01/25 01:11:18;;;;;;;4.90;3.60;;;;;;;21.24;25.41;100752.16;5130305;27;20039;-58
2022/01/25 01:14:16;;;;;;;6.38;3.70;;;;;;;21.21;25.59;100753.66;5130020;27;20050;-58
2022/01/25 01:36:14;;;;;;;4.47;3.33;;;;;;;21.04;25.73;100759.41;5109515;28;20131;-59
2022/01/25 01:43:35;;;;;;;4.47;3.30;;;;;;;20.98;25.75;100769.94;5109559;28;20087;-58
2022/01/25 01:48:56;;;;;;;4.30;3.25;;;;;;;20.99;25.80;100765.19;5106401;28;20050;-59
2022/01/25 01:51:30;;;;;;;5.00;3.67;;;;;;;20.97;25.66;100768.31;5109273;28;20043;-58
2022/01/25 01:54:08;;;;;;;4.78;3.88;;;;;;;20.97;25.84;100765.53;5108997;28;20043;-58
2022/01/25 01:56:34;;;;;;;5.30;3.80;;;;;;;21.08;25.82;100765.94;5108799;28;20054;-59
2022/01/25 01:59:04;;;;;;;5.10;3.75;;;;;;;21.11;25.61;100768.03;5109031;28;20349;-59
2022/01/25 02:01:30;;;;;;;5.05;3.47;;;;;;;21.15;25.46;100768.97;5109388;28;20075;-60
2022/01/25 02:03:58;;;;;;;4.78;3.47;;;;;;;21.20;25.71;100779.03;5109516;28;20118;-58
2022/01/25 02:06:23;;;;;;;4.97;3.40;;;;;;;21.25;25.47;100764.91;5109484;28;20046;-58
2022/01/25 02:08:49;;;;;;;4.57;3.15;;;;;;;21.28;25.62;100770.63;5109443;28;20076;-48
2022/01/25 02:11:15;;;;;;;4.90;3.58;;;;;;;21.32;25.34;100774.34;5109333;28;20079;-50
2022/01/25 02:13:42;;;;;;;4.47;3.38;;;;;;;21.36;25.26;100772.53;5109155;28;20100;-53
2022/01/25 02:16:16;;;;;;;4.68;3.63;;;;;;;21.39;25.41;100777.38;5109287;28;20075;-47
2022/01/25 02:24:09;;;;;;;4.13;3.05;;;;;;;21.50;25.40;100783.28;5109456;28;20127;-48
2022/01/25 02:26:34;;;;;;;4.32;2.97;;;;;;;21.53;25.41;100781.81;5108901;28;20407;-49
2022/01/25 02:29:00;;;;;;;5.03;3.50;;;;;;;21.51;25.45;100784.13;5108665;28;20164;-48
2022/01/25 02:31:25;;;;;;;5.38;3.55;;;;;;;21.49;25.53;100780.88;5108666;28;20081;-47
2022/01/25 02:33:51;;;;;;;4.10;3.13;;;;;;;21.46;25.54;100774.03;5108494;28;20112;-48
2022/01/25 02:36:27;;;;;;;4.55;3.35;;;;;;;21.41;25.34;100774.25;5111911;28;20062;-48
2022/01/25 02:38:54;;;;;;;4.18;3.25;;;;;;;21.37;25.50;100774.16;5112311;28;20113;-52
2022/01/25 02:41:20;;;;;;;4.80;3.35;;;;;;;21.35;25.47;100781.19;5112698;28;20097;-48
2022/01/25 02:43:47;;;;;;;4.30;3.22;;;;;;;21.34;25.33;100780.38;5112602;28;20048;-48
2022/01/25 02:49:07;;;;;;;7.57;3.50;;;;;;;21.28;25.61;100773.41;5111819;28;20040;-50
2022/01/25 02:51:43;;;;;;;5.10;3.78;;;;;;;21.25;25.33;100765.72;5110993;28;20058;-48
2022/01/25 02:54:09;;;;;;;4.53;3.30;;;;;;;21.24;25.62;100778.03;5112119;28;20074;-49
2022/01/25 02:56:38;;;;;;;4.97;3.55;;;;;;;21.20;25.50;100768.72;5112098;28;20044;-50
2022/01/25 02:59:06;;;;;;;4.35;3.55;;;;;;;21.19;25.52;100774.66;5111822;28;20135;-48
2022/01/25 03:01:32;;;;;;;4.28;3.17;;;;;;;21.17;25.51;100775.00;5111903;28;20396;-48
2022/01/25 03:03:58;;;;;;;5.20;3.80;;;;;;;21.13;25.45;100771.25;5111629;28;20487;-48
2022/01/25 03:06:25;;;;;;;4.97;3.38;;;;;;;21.12;25.27;100778.78;5111291;28;20096;-58
2022/01/25 03:08:51;;;;;;;4.68;3.42;;;;;;;21.11;25.48;100779.16;5111471;28;20566;-58
2022/01/25 03:11:19;;;;;;;4.72;3.72;;;;;;;21.10;25.46;100781.13;5111717;28;20044;-59
2022/01/25 03:13:52;;;;;;;5.65;3.83;;;;;;;21.23;25.14;100784.75;5111321;28;20079;-59
2022/01/25 03:19:30;;;;;;;4.40;3.20;;;;;;;21.46;25.26;100787.13;5107932;28;20032;-59
2022/01/25 03:21:58;;;;;;;5.38;3.60;;;;;;;21.40;25.00;100783.75;5111278;28;20422;-58
2022/01/25 03:24:24;;;;;;;4.32;3.30;;;;;;;21.34;25.20;100774.00;5111304;28;20487;-59
2022/01/25 03:26:50;;;;;;;4.70;3.40;;;;;;;21.33;25.20;100781.53;5111443;28;20047;-59
2022/01/25 03:29:15;;;;;;;4.75;3.40;;;;;;;21.33;25.11;100773.19;5111433;28;20043;-58
2022/01/25 03:31:41;;;;;;;5.07;3.45;;;;;;;21.35;24.99;100782.00;5111372;28;20052;-59
2022/01/25 03:34:07;;;;;;;4.97;3.30;;;;;;;21.37;25.02;100778.91;5111244;28;20078;-58
2022/01/25 03:36:32;;;;;;;4.55;3.20;;;;;;;21.39;25.03;100776.56;5111125;28;20089;-59
2022/01/25 03:38:58;;;;;;;4.63;3.03;;;;;;;21.42;25.35;100790.59;5111173;28;20035;-59
2022/01/25 03:41:25;;;;;;;4.60;3.28;;;;;;;21.43;25.23;100791.41;5110884;28;20459;-58
2022/01/25 03:43:54;;;;;;;3.53;2.78;;;;;;;21.40;25.23;100790.13;5111035;28;20062;-59
2022/01/25 03:46:59;;;;;;;4.45;3.20;;;;;;;21.38;25.03;100789.69;5109692;28;20039;-58
2022/01/25 03:51:52;;;;;;;4.10;3.10;;;;;;;21.33;25.27;100792.69;5107958;28;20082;-59
2022/01/25 03:54:18;;;;;;;4.90;3.55;;;;;;;21.27;25.19;100782.88;5111327;28;20472;-59
2022/01/25 03:56:45;;;;;;;5.75;3.30;;;;;;;21.24;25.41;100783.59;5111026;28;20052;-58
2022/01/25 03:59:11;;;;;;;5.22;3.55;;;;;;;21.22;25.14;100780.34;5110975;28;20069;-59
2022/01/25 04:01:37;;;;;;;4.25;3.17;;;;;;;21.21;25.19;100781.47;5110935;28;20044;-58
2022/01/25 04:04:12;;;;;;;4.60;3.08;;;;;;;21.18;25.51;100787.75;5110647;28;20055;-59
2022/01/25 04:06:38;;;;;;;4.65;3.10;;;;;;;21.16;25.27;100785.31;5110642;28;20566;-58
2022/01/25 04:09:06;;;;;;;4.50;3.53;;;;;;;21.13;25.45;100793.53;5110730;28;20054;-48
2022/01/25 04:11:32;;;;;;;3.90;3.25;;;;;;;21.10;25.24;100797.81;5110675;28;20101;-48
2022/01/25 04:13:58;;;;;;;4.57;3.20;;;;;;;21.10;25.18;100791.44;5110312;28;20047;-48
2022/01/25 04:16:36;;;;;;;3.97;2.90;;;;;;;21.08;25.28;100790.97;5110387;28;20411;-49
2022/01/25 04:19:26;;;;;;;4.03;2.97;;;;;;;21.07;25.17;100789.31;5110724;28;20053;-48
2022/01/25 04:27:23;;;;;;;3.90;2.90;;;;;;;21.25;25.12;100785.22;5110567;28;20146;-58
2022/01/25 04:29:48;;;;;;;3.63;2.67;;;;;;;21.29;25.10;100780.63;5110584;28;20130;-59
2022/01/25 04:32:15;;;;;;;3.67;2.70;;;;;;;21.33;25.04;100789.91;5110382;28;20126;-58
2022/01/25 04:34:44;;;;;;;4.15;3.17;;;;;;;21.33;25.27;100781.53;5110075;28;20657;-58
2022/01/25 04:53:28;;;;;;;3.50;2.80;;;;;;;21.46;24.87;100782.38;5109725;28;20155;-58
2022/01/25 04:56:01;;;;;;;4.60;3.17;;;;;;;21.41;24.98;100777.84;5109804;28;20134;-58
2022/01/25 04:58:36;;;;;;;4.10;2.90;;;;;;;21.47;24.96;100780.41;5109410;28;20039;-58
2022/01/25 05:01:01;;;;;;;3.72;2.58;;;;;;;21.50;24.87;100782.50;5109914;28;20047;-58
2022/01/25 05:03:38;;;;;;;3.92;2.70;;;;;;;21.48;24.68;100787.59;5109817;28;20458;-58
2022/01/25 05:06:10;;;;;;;4.93;3.20;;;;;;;21.52;24.95;100782.97;5109394;28;20396;-57
2022/01/25 05:08:41;;;;;;;3.90;2.70;;;;;;;21.52;25.04;100786.56;5109412;28;20047;-58
2022/01/25 05:16:34;;;;;;;4.18;2.90;;;;;;;21.63;24.86;100787.72;5109207;28;20043;-58
2022/01/25 05:22:03;;;;;;;3.63;2.75;;;;;;;21.65;25.01;100792.97;5109622;28;20044;-58
2022/01/25 05:22:18;;;;;;;3.83;2.75;;;;;;;21.66;24.86;100800.16;5109158;28;20055;-58
2022/01/25 05:24:44;;;;;;;4.82;3.17;;;;;;;21.64;24.87;100799.66;5109403;28;20454;-59
2022/01/25 05:27:13;;;;;;;4.07;2.95;;;;;;;21.59;24.94;100797.13;5109661;28;20047;-56
2022/01/25 05:29:39;;;;;;;4.32;3.00;;;;;;;21.57;24.92;100802.22;5109592;28;20131;-56
2022/01/25 05:32:05;;;;;;;4.15;3.05;;;;;;;21.53;24.88;100804.09;5109308;28;20044;-56
2022/01/25 05:34:31;;;;;;;4.65;3.30;;;;;;;21.50;24.68;100808.34;5106999;28;20077;-56
2022/01/25 05:36:57;;;;;;;4.88;3.30;;;;;;;21.47;24.96;100802.69;5109235;28;20039;-56
2022/01/25 05:39:28;;;;;;;3.85;2.92;;;;;;;21.43;24.83;100794.19;5109061;28;20075;-46
2022/01/25 05:42:19;;;;;;;4.20;2.85;;;;;;;21.40;24.69;100795.69;5109374;28;20059;-46
2022/01/25 05:44:58;;;;;;;4.38;3.22;;;;;;;21.36;25.00;100805.91;5109077;28;20380;-46
2022/01/25 05:47:28;;;;;;;4.72;3.47;;;;;;;21.36;24.66;100800.34;5109043;28;20052;-46
2022/01/25 05:49:54;;;;;;;4.07;3.28;;;;;;;21.33;24.71;100798.25;5109009;28;20048;-46
2022/01/25 05:52:19;;;;;;;4.07;3.10;;;;;;;21.33;24.58;100795.47;5109107;28;20078;-46
2022/01/25 05:54:45;;;;;;;4.65;3.08;;;;;;;21.32;25.00;100799.41;5109049;28;20046;-46
2022/01/25 05:57:11;;;;;;;4.25;3.10;;;;;;;21.31;24.61;100795.00;5108433;28;20047;-47
2022/01/25 05:59:37;;;;;;;3.92;2.85;;;;;;;21.29;24.67;100800.09;5109193;28;20078;-46
2022/01/25 06:02:04;;;;;;;3.90;3.00;;;;;;;21.27;25.07;100807.94;5108823;28;20150;-47
2022/01/25 06:04:29;;;;;;;4.47;3.42;;;;;;;21.28;24.83;100808.78;5109055;28;20044;-47
2022/01/25 06:06:55;;;;;;;4.30;3.50;;;;;;;21.35;24.87;100809.84;5109030;28;20043;-49
2022/01/25 06:09:20;;;;;;;4.35;3.08;;;;;;;21.56;24.56;100797.81;5107931;28;20466;-50
2022/01/25 06:11:46;;;;;;;28.45;3.80;;;;;;;21.74;24.94;100804.81;5108925;28;20054;-55
2022/01/25 06:14:11;;;;;;;6.78;3.50;;;;;;;21.92;24.31;100803.41;5108732;28;20058;-56
2022/01/25 06:16:36;;;;;;;94.97;7.40;;;;;;;21.95;24.65;100811.06;5109391;28;20067;-54
2022/01/25 06:19:02;;;;;;;81.93;8.00;;;;;;;21.89;24.32;100817.22;5109221;28;20039;-52
2022/01/25 06:21:28;;;;;;;31.30;4.10;;;;;;;21.80;24.74;100813.75;5109366;28;20077;-54
2022/01/25 06:23:55;;;;;;;30.40;4.43;;;;;;;21.72;24.60;100821.06;5109245;28;20126;-54
2022/01/25 06:26:21;;;;;;;21.85;4.78;;;;;;;21.75;24.77;100820.34;5109195;28;20047;-54
2022/01/25 06:28:46;;;;;;;22.75;4.13;;;;;;;21.75;24.46;100834.28;5108930;28;20043;-58
2022/01/25 06:31:12;;;;;;;14.15;3.70;;;;;;;21.75;24.78;100823.13;5109196;28;20061;-57
2022/01/25 06:33:42;;;;;;;21.65;4.00;;;;;;;21.75;24.84;100827.88;5108917;28;20134;-56
2022/01/25 06:36:08;;;;;;;19.65;3.55;;;;;;;21.75;24.75;100831.50;5109132;28;20048;-56
2022/01/25 06:38:34;;;;;;;23.63;4.13;;;;;;;21.75;24.90;100827.88;5108659;28;20038;-57
2022/01/25 06:40:59;;;;;;;15.85;3.75;;;;;;;21.74;24.62;100829.06;5108291;28;20046;-56
2022/01/25 06:43:25;;;;;;;13.57;3.53;;;;;;;21.71;24.72;100827.75;5108959;28;20040;-57
2022/01/25 06:45:56;;;;;;;14.35;3.63;;;;;;;21.68;24.47;100831.25;5108969;28;20122;-56
2022/01/25 06:48:23;;;;;;;12.00;3.50;;;;;;;21.64;24.69;100836.69;5108978;28;20050;-56
2022/01/25 06:50:48;;;;;;;10.32;3.83;;;;;;;21.61;24.60;100833.78;5108855;28;20169;-56
2022/01/25 06:53:14;;;;;;;7.90;3.17;;;;;;;21.58;24.78;100840.06;5108863;28;20142;-57
2022/01/25 06:55:40;;;;;;;8.35;3.10;;;;;;;21.55;24.62;100835.16;5108701;28;20134;-57
2022/01/25 06:58:05;;;;;;;10.20;3.38;;;;;;;21.52;24.77;100830.31;5108537;28;20380;-56
2022/01/25 07:00:30;;;;;;;9.93;3.25;;;;;;;21.50;24.87;100838.16;5108584;28;20127;-57
2022/01/25 07:02:56;;;;;;;8.52;3.30;;;;;;;21.46;24.61;100838.06;5108559;28;20051;-57
2022/01/25 07:05:21;;;;;;;7.15;3.05;;;;;;;21.44;24.59;100843.16;5108574;28;20419;-57
2022/01/25 07:07:47;;;;;;;7.97;3.33;;;;;;;21.41;24.63;100843.84;5105796;28;20040;-56
2022/01/25 07:10:13;;;;;;;8.55;3.30;;;;;;;21.38;24.88;100836.19;5108664;28;20132;-56
2022/01/25 07:12:39;;;;;;;6.65;3.50;;;;;;;21.38;24.85;100842.56;5108535;28;20076;-57
2022/01/25 07:15:05;;;;;;;5.55;3.15;;;;;;;21.36;25.01;100839.31;5108400;28;20048;-57
2022/01/25 07:17:31;;;;;;;7.18;3.30;;;;;;;21.33;24.59;100840.00;5108160;28;20044;-57
2022/01/25 07:19:56;;;;;;;7.07;3.67;;;;;;;21.30;24.92;100837.91;5108502;28;20052;-56
2022/01/25 07:22:22;;;;;;;5.93;3.05;;;;;;;21.30;24.83;100835.13;5111922;28;20043;-57
2022/01/25 07:24:47;;;;;;;7.68;3.60;;;;;;;21.30;24.62;100840.69;5112004;28;20039;-57
2022/01/25 07:27:13;;;;;;;4.78;3.13;;;;;;;21.46;24.56;100842.81;5112013;28;20047;-57
2022/01/25 07:29:38;;;;;;;7.55;3.47;;;;;;;21.57;24.28;100839.22;5111848;28;20052;-57
2022/01/25 07:32:04;;;;;;;8.10;2.97;;;;;;;21.62;24.39;100840.97;5111971;28;20063;-57
2022/01/25 07:34:30;;;;;;;7.57;3.20;;;;;;;21.61;24.54;100842.94;5111399;28;20043;-57
2022/01/25 07:36:55;;;;;;;4.47;2.90;;;;;;;21.61;24.46;100834.59;5109220;28;20108;-57
2022/01/25 07:39:21;;;;;;;4.38;2.70;;;;;;;21.63;24.50;100843.41;5073240;28;20458;-55
2022/01/25 07:41:47;;;;;;;5.53;3.50;;;;;;;21.61;24.63;100850.50;5079657;28;20104;-54
2022/01/25 07:44:13;;;;;;;5.75;3.15;;;;;;;21.58;24.65;100851.19;5087227;28;20044;-54
2022/01/25 07:46:39;;;;;;;5.97;3.38;;;;;;;21.55;24.46;100846.31;5111260;28;20042;-54
2022/01/25 07:49:05;;;;;;;4.88;3.63;;;;;;;21.52;24.61;100847.00;5108947;28;20090;-55
2022/01/25 07:51:30;;;;;;;8.00;3.42;;;;;;;21.49;24.70;100842.13;5088406;28;20040;-54
2022/01/25 07:53:56;;;;;;;4.68;3.40;;;;;;;21.45;24.45;100846.75;5093703;28;20048;-57
2022/01/25 07:56:22;;;;;;;5.80;3.67;;;;;;;21.41;24.46;100850.22;5110392;28;20074;-57
2022/01/25 07:58:48;;;;;;;5.63;3.70;;;;;;;21.39;24.44;100844.19;5110612;28;20071;-57
2022/01/25 08:01:15;;;;;;;5.03;3.47;;;;;;;21.38;24.65;100844.53;5093773;28;20125;-57
2022/01/25 08:03:41;;;;;;;6.85;3.70;;;;;;;21.36;24.51;100844.03;5090403;28;20040;-57
2022/01/25 08:06:07;;;;;;;4.88;3.50;;;;;;;21.33;24.54;100842.78;5090177;28;20040;-57
2022/01/25 08:08:33;;;;;;;7.00;3.88;;;;;;;21.28;25.06;100842.16;5099697;28;20067;-58
2022/01/25 08:10:59;;;;;;;5.35;3.60;;;;;;;21.29;24.98;100843.78;5109225;28;20051;-59
2022/01/25 08:13:26;;;;;;;5.07;3.63;;;;;;;21.30;25.25;100837.91;5080044;28;20048;-58
2022/01/25 08:15:51;;;;;;;5.43;3.90;;;;;;;21.29;24.98;100839.06;5090597;28;20048;-59
2022/01/25 08:18:16;;;;;;;5.65;4.10;;;;;;;21.27;25.12;100846.91;5099412;28;20051;-57
2022/01/25 08:20:42;;;;;;;5.82;4.00;;;;;;;21.29;25.24;100847.41;5098520;28;20038;-57
2022/01/25 08:23:08;;;;;;;6.63;4.10;;;;;;;21.29;25.50;100841.84;5104216;28;20036;-58
2022/01/25 08:25:34;;;;;;;6.50;4.35;;;;;;;21.31;25.28;100841.50;5103414;28;20559;-58
2022/01/25 08:28:00;;;;;;;5.18;3.92;;;;;;;21.31;25.28;100842.31;5104152;28;20043;-58
2022/01/25 08:30:25;;;;;;;6.18;4.30;;;;;;;21.32;25.33;100843.13;5106819;28;20052;-56
2022/01/25 08:32:51;;;;;;;5.70;3.97;;;;;;;21.33;25.33;100840.00;5106442;28;20059;-57
2022/01/25 08:35:18;;;;;;;5.43;4.15;;;;;;;21.33;25.24;100841.97;5100072;28;20454;-57
2022/01/25 08:37:44;;;;;;;6.22;4.60;;;;;;;21.38;25.25;100841.75;5100352;28;20040;-54
2022/01/25 08:40:11;;;;;;;6.30;4.43;;;;;;;21.40;25.43;100840.25;5107883;28;20130;-53
2022/01/25 08:42:36;;;;;;;5.85;4.50;;;;;;;21.48;25.24;100846.06;5104653;28;20035;-52
2022/01/25 08:45:04;;;;;;;7.43;4.80;;;;;;;21.54;25.39;100839.13;5092494;28;20048;-54
2022/01/25 08:47:30;;;;;;;6.18;4.63;;;;;;;21.58;25.08;100838.09;5103399;28;20838;-56
2022/01/25 08:49:56;;;;;;;5.10;3.70;;;;;;;21.66;25.24;100839.16;5101698;28;20118;-57
2022/01/25 08:52:21;;;;;;;6.22;4.40;;;;;;;21.68;25.52;100837.63;5091505;28;20040;-56
2022/01/25 08:54:47;;;;;;;6.72;4.63;;;;;;;21.71;25.40;100842.50;5098383;28;20134;-56
2022/01/25 08:57:12;;;;;;;6.82;4.55;;;;;;;21.69;25.31;100841.22;5100134;28;20053;-53
2022/01/25 08:59:38;;;;;;;6.50;4.80;;;;;;;21.64;25.50;100849.78;5099238;28;20055;-56
2022/01/25 09:02:04;;;;;;;6.97;4.50;;;;;;;21.63;25.63;100845.38;5103626;28;20149;-57
2022/01/25 09:04:29;;;;;;;6.15;4.47;;;;;;;21.65;25.33;100843.09;5102256;28;20385;-56
2022/01/25 09:06:55;;;;;;;6.20;4.40;;;;;;;21.65;25.59;100851.44;5100463;28;20472;-57
2022/01/25 09:09:21;;;;;;;6.40;4.32;;;;;;;21.65;25.51;100843.91;5101962;28;20040;-54
2022/01/25 09:11:47;;;;;;;6.45;4.60;;;;;;;21.65;25.54;100843.09;5109051;28;20151;-51
2022/01/25 09:14:12;;;;;;;5.43;4.03;;;;;;;21.64;25.42;100850.59;5103503;28;20460;-51
2022/01/25 09:16:38;;;;;;;6.28;4.70;;;;;;;21.65;25.67;100848.66;5094822;28;20134;-56
2022/01/25 09:19:05;;;;;;;5.70;4.40;;;;;;;21.63;25.60;100851.75;5096561;28;20088;-57
2022/01/25 09:21:30;;;;;;;7.30;5.03;;;;;;;21.61;25.40;100848.53;5098310;28;20120;-57
2022/01/25 09:23:56;;;;;;;6.55;4.50;;;;;;;21.58;25.67;100851.19;5104704;28;20457;-57
2022/01/25 09:26:22;;;;;;;6.82;4.55;;;;;;;21.53;25.81;100852.22;5101344;28;20027;-58
2022/01/25 09:28:49;;;;;;;6.28;4.60;;;;;;;21.50;25.77;100849.31;5095959;28;20066;-57
2022/01/25 09:31:16;;;;;;;5.70;4.35;;;;;;;21.46;25.66;100843.63;5099757;28;20130;-57
2022/01/25 09:33:42;;;;;;;6.95;4.55;;;;;;;21.43;25.66;100850.69;5094048;28;20131;-57
2022/01/25 09:36:07;;;;;;;6.72;4.40;;;;;;;21.36;25.91;100856.03;5093204;28;20123;-57
2022/01/25 09:38:33;;;;;;;5.18;3.88;;;;;;;21.36;25.84;100858.81;5087564;28;20072;-57
2022/01/25 09:40:58;;;;;;;6.70;4.75;;;;;;;21.40;25.84;100848.59;5090504;28;20043;-57
2022/01/25 09:43:24;;;;;;;6.53;4.47;;;;;;;21.43;25.46;100856.28;5093449;28;20036;-47
2022/01/25 09:45:50;;;;;;;7.25;4.47;;;;;;;21.43;25.59;100853.50;5097233;28;20079;-52
2022/01/25 09:48:17;;;;;;;7.82;4.53;;;;;;;21.45;25.42;100846.75;5094456;28;20048;-49
2022/01/25 09:50:44;;;;;;;8.57;4.60;;;;;;;21.45;25.48;100847.56;5091601;28;20040;-52
2022/01/25 09:53:09;;;;;;;5.90;4.05;;;;;;;21.46;25.51;100849.19;5094071;28;20506;-53
2022/01/25 09:55:39;;;;;;;7.05;4.68;;;;;;;21.50;25.69;100852.91;5098269;28;20044;-52
2022/01/25 09:58:05;;;;;;;6.18;4.50;;;;;;;21.53;25.59;100848.63;5098958;28;20031;-49
2022/01/25 10:00:33;;;;;;;5.65;4.05;;;;;;;21.54;25.35;100844.69;5099312;28;20052;-49
2022/01/25 10:05:46;;;;;;;5.43;4.10;;;;;;;21.58;25.60;100848.41;5091861;28;20541;-50
2022/01/25 10:08:14;;;;;;;5.45;4.35;;;;;;;21.61;25.58;100842.16;5095812;28;20044;-50
2022/01/25 10:10:49;;;;;;;5.45;4.10;;;;;;;21.62;25.42;100836.22;5090604;28;20044;-48
2022/01/25 10:13:25;;;;;;;5.53;4.25;;;;;;;21.65;25.14;100841.13;5093391;28;20043;-48
2022/01/25 10:15:57;;;;;;;6.57;5.03;;;;;;;21.67;25.17;100843.56;5100145;28;20381;-55
2022/01/25 10:18:23;;;;;;;6.37;4.53;;;;;;;21.71;25.32;100838.91;5101504;28;20068;-50
2022/01/25 10:20:50;;;;;;;5.63;4.15;;;;;;;21.70;25.51;100834.50;5099598;28;20130;-49
2022/01/25 10:23:30;;;;;;;5.95;4.15;;;;;;;21.68;25.63;100834.84;5091768;28;20131;-55
2022/01/25 10:25:59;;;;;;;5.45;4.18;;;;;;;21.70;25.23;100831.72;5099926;28;20103;-53
2022/01/25 10:28:28;;;;;;;5.80;4.18;;;;;;;21.70;25.46;100834.50;5094833;28;20479;-54
2022/01/25 10:31:02;;;;;;;5.93;4.50;;;;;;;21.69;25.30;100818.94;5097842;28;20066;-54
2022/01/25 10:33:32;;;;;;;5.72;4.30;;;;;;;21.69;25.56;100821.72;5092416;28;20597;-55
2022/01/25 10:36:19;;;;;;;6.20;4.50;;;;;;;21.66;25.58;100814.88;5095581;28;20044;-57
2022/01/25 10:38:48;;;;;;;5.90;4.57;;;;;;;21.65;25.43;100813.28;5089816;28;20138;-58
2022/01/25 10:41:16;;;;;;;5.65;4.15;;;;;;;21.62;25.81;100811.16;5101373;28;20043;-58
2022/01/25 10:43:44;;;;;;;6.00;4.35;;;;;;;21.61;25.79;100812.31;5100311;28;20043;-59
2022/01/25 10:46:30;;;;;;;6.38;4.72;;;;;;;21.63;25.57;100815.56;5098345;28;20051;-62
2022/01/25 10:48:57;;;;;;;6.82;4.50;;;;;;;21.64;25.77;100810.81;5097775;28;20065;-60
2022/01/25 10:51:44;;;;;;;6.90;4.30;;;;;;;21.63;25.68;100803.63;5107510;28;20056;-73
2022/01/25 10:54:21;;;;;;;5.10;3.90;;;;;;;21.63;25.84;100792.47;5107273;28;20051;-57
2022/01/25 10:56:49;;;;;;;5.68;4.20;;;;;;;21.64;25.83;100791.31;5105455;28;20040;-59
2022/01/25 10:59:19;;;;;;;6.20;4.35;;;;;;;21.63;25.98;100787.72;5100197;28;20043;-62
2022/01/25 11:01:52;;;;;;;5.60;4.55;;;;;;;21.66;25.65;100787.03;5103081;28;20412;-64
2022/01/25 11:04:22;;;;;;;6.05;4.60;;;;;;;21.68;26.05;100792.25;5103835;28;20113;-60
2022/01/25 11:06:54;;;;;;;6.47;4.18;;;;;;;21.67;25.82;100776.72;5098403;28;20043;-55
2022/01/25 11:09:24;;;;;;;6.07;4.28;;;;;;;21.68;25.95;100783.91;5104614;28;20048;-55
2022/01/25 11:11:53;;;;;;;5.10;4.18;;;;;;;21.69;25.88;100777.16;5111264;28;20054;-55
2022/01/25 11:17:03;;;;;;;5.45;4.10;;;;;;;21.66;25.79;100764.78;5093543;28;20089;-55
2022/01/25 11:19:29;;;;;;;5.55;4.30;;;;;;;21.66;25.98;100767.56;5099677;28;20048;-52
2022/01/25 11:21:58;;;;;;;6.18;4.53;;;;;;;21.66;25.72;100769.53;5097535;28;20032;-54
2022/01/25 11:24:25;;;;;;;5.85;4.43;;;;;;;21.64;26.01;100766.25;5099245;28;20048;-55
2022/01/25 11:26:52;;;;;;;5.60;4.20;;;;;;;21.63;25.89;100765.44;5105631;28;20047;-55
2022/01/25 11:29:19;;;;;;;7.43;4.75;;;;;;;21.63;25.73;100754.31;5099255;28;20061;-56
2022/01/25 11:31:56;;;;;;;5.15;4.20;;;;;;;21.61;26.03;100764.19;5100424;28;20043;-55
2022/01/25 11:34:26;;;;;;;6.18;4.28;;;;;;;21.60;25.99;100754.22;5098502;28;20067;-55
2022/01/25 11:36:55;;;;;;;5.93;4.20;;;;;;;21.59;26.00;100753.41;5101137;28;20074;-54
2022/01/25 11:39:23;;;;;;;5.70;4.43;;;;;;;21.61;26.04;100747.47;5076469;28;20068;-56
2022/01/25 11:41:49;;;;;;;6.05;4.63;;;;;;;21.60;25.63;100746.66;5089033;28;20436;-55
2022/01/25 11:44:21;;;;;;;5.25;3.97;;;;;;;21.59;25.86;100744.22;5090667;28;20104;-56
2022/01/25 11:46:55;;;;;;;4.85;4.03;;;;;;;21.59;25.76;100738.66;5098567;28;20420;-55
2022/01/25 11:49:22;;;;;;;7.75;4.68;;;;;;;21.61;25.69;100739.94;5104758;28;20055;-55
2022/01/25 11:52:14;;;;;;;5.78;4.03;;;;;;;21.59;26.03;100733.09;5091075;28;20044;-56
2022/01/25 11:54:41;;;;;;;6.70;4.75;;;;;;;21.58;25.98;100723.94;5089867;28;20056;-54
2022/01/25 11:57:25;;;;;;;5.85;4.13;;;;;;;21.57;25.94;100721.47;5095084;28;20040;-55
2022/01/25 11:59:57;;;;;;;6.53;4.47;;;;;;;21.51;25.77;100715.34;5095610;28;20047;-54
2022/01/25 12:02:46;;;;;;;5.85;4.18;;;;;;;21.54;26.03;100716.63;5102903;28;20079;-55
2022/01/25 12:05:18;;;;;;;6.30;4.40;;;;;;;21.55;25.87;100707.09;5099306;28;20055;-54
2022/01/25 12:08:06;;;;;;;5.70;3.95;;;;;;;21.55;25.89;100707.91;5096530;28;20048;-56
2022/01/25 12:10:43;;;;;;;5.28;3.90;;;;;;;21.57;25.99;100705.56;5098697;28;20487;-55
2022/01/25 12:13:20;;;;;;;6.95;3.88;;;;;;;21.56;25.95;100692.00;5109084;28;20130;-54
2022/01/25 12:16:28;;;;;;;5.95;3.90;;;;;;;21.52;26.06;100691.91;5099153;28;20036;-54
2022/01/25 12:18:59;;;;;;;11.90;4.35;;;;;;;21.54;25.95;100686.81;5101805;28;20044;-53
2022/01/25 12:21:47;;;;;;;6.90;3.90;;;;;;;21.53;26.00;100681.59;5105255;28;20126;-56
2022/01/25 12:24:19;;;;;;;11.55;3.95;;;;;;;21.50;26.12;100676.69;5091460;28;20122;-56
2022/01/25 12:27:26;;;;;;;11.88;3.60;;;;;;;21.50;26.21;100677.50;5107369;28;20051;-55
2022/01/25 12:30:04;;;;;;;10.07;4.65;;;;;;;21.57;26.68;100663.00;5099969;28;20047;-54
2022/01/25 12:32:36;;;;;;;7.72;4.38;;;;;;;21.56;26.95;100664.19;5094663;28;20047;-57
2022/01/25 12:35:13;;;;;;;9.45;3.88;;;;;;;21.60;26.76;100659.53;5100292;28;20043;-56
2022/01/25 12:37:54;;;;;;;6.28;4.10;;;;;;;21.63;26.84;100658.84;5101502;28;20455;-54
2022/01/25 12:40:25;;;;;;;8.20;3.85;;;;;;;21.65;26.85;100650.97;5089838;28;20036;-57
2022/01/25 12:42:59;;;;;;;11.75;4.10;;;;;;;21.62;27.15;100651.63;5103823;28;20150;-57
2022/01/25 12:45:31;;;;;;;10.70;3.80;;;;;;;21.62;26.88;100646.06;5102900;28;20448;-58
2022/01/25 12:48:08;;;;;;;10.60;3.92;;;;;;;21.66;27.06;100642.25;5098993;28;20043;-58
2022/01/25 12:50:39;;;;;;;21.80;4.20;;;;;;;21.68;27.13;100641.88;5098400;28;20054;-58
2022/01/25 12:53:07;;;;;;;6.28;3.63;;;;;;;21.65;26.97;100637.03;5101259;28;20457;-58
2022/01/25 12:55:39;;;;;;;11.85;3.97;;;;;;;21.63;27.02;100633.78;5103537;28;20043;-56
2022/01/25 12:58:05;;;;;;;10.73;4.28;;;;;;;21.60;27.51;100623.34;5098568;28;20487;-57
2022/01/25 13:00:38;;;;;;;13.73;4.30;;;;;;;21.62;27.26;100621.00;5100152;28;20092;-55
2022/01/25 13:03:22;;;;;;;35.13;21.00;;;;;;;21.55;26.16;100624.38;5097147;28;20043;-57
2022/01/25 13:05:51;;;;;;;25.33;16.38;;;;;;;21.48;26.70;100623.34;5097565;28;20062;-58
2022/01/25 13:08:27;;;;;;;20.83;11.38;;;;;;;21.45;26.83;100612.94;5101070;28;20044;-62
2022/01/25 13:11:11;;;;;;;16.73;8.98;;;;;;;21.53;27.13;100614.78;5099892;28;20067;-61
2022/01/25 13:13:47;;;;;;;16.65;7.57;;;;;;;21.58;27.23;100608.97;5101106;28;20044;-59